Goldsworthy, Australia
Current Conditions -  °F | °C
As of 6:30 PM on Friday 24 Oct 2014 (Local Time) from YPPD Reporting Station
Clear Clear  
Wind Chill: 81°   Ceiling: Unl
Heat Index: 85°   Visibility: 6mi
Dew Point: 73°   Wind: 13mph
Humidity: 79%   Direction: 350°N
Pressure: 29.83"   Gusts: NA
Location:  20.34°S, 119.52°E
Report Text: YPPD 241030Z AUTO 35011KT 9999 // NCD 27/23 Q1010
Loading
Personal Weather Stations






























Interactive Weather Map
Tropical Storm Tracking
New forecast layout! Learn more

10-Day Weather Forecast

Advertisements
Track Severe Weather on mobile